Terminal Aerodrome Forecast
Issued by NWS St Louis, MO

Home | Current Version | Previous Version | Text Only | Print | Product List | Glossary On
Versions: 1 2 3 4 5 6 7 8 9 10 11 12
000
FTUS43 KLSX 020500
TAFCOU
TAF
KCOU 020520Z 0206/0306 14004KT P6SM BKN100
     FM021500 20007KT P6SM BKN100
     FM030100 16005KT P6SM SCT100 BKN200=

USA.gov is the U.S. government's official web portal to all federal, state and local government web resources and services.